Time;durP1;ratioP1;P1;durP2;ratioP2;P2;SDS_P1;SDS_P2;PMS_P1;PMS_P2;Temp;Humidity;BMP_temperature;BMP_pressure;BME280_temperature;BME280_humidity;BME280_pressure;Samples;Min_cycle;Max_cycle;Signal;HPM_P1;HPM_P2
2023/01/13 00:00:33;;;;;;;20.60;3.67;;;;;;;;;;5025842;28;20135;-68
2023/01/13 00:03:00;;;;;;;22.30;3.88;;;;;;;;;;5023560;28;20592;-69
2023/01/13 00:05:27;;;;;;;22.05;3.33;;;;;;;;;;5025099;28;20029;-70
2023/01/13 00:07:53;;;;;;;14.27;3.00;;;;;;;;;;5025805;28;20049;-68
2023/01/13 00:10:20;;;;;;;9.88;2.65;;;;;;;;;;5025191;28;20619;-69
2023/01/13 00:12:47;;;;;;;14.23;3.05;;;;;;;;;;5025267;28;20066;-69
2023/01/13 00:15:13;;;;;;;13.02;2.80;;;;;;;;;;5030137;28;20026;-69
2023/01/13 00:17:40;;;;;;;11.32;2.25;;;;;;;;;;5026885;28;20056;-69
2023/01/13 00:20:07;;;;;;;8.00;2.22;;;;;;;;;;5024833;28;20041;-69
2023/01/13 00:22:34;;;;;;;6.90;1.60;;;;;;;;;;5024584;28;20111;-69
2023/01/13 00:25:03;;;;;;;14.77;2.13;;;;;;;;;;5026069;28;20452;-69
2023/01/13 00:27:30;;;;;;;8.27;1.70;;;;;;;;;;5002485;28;20041;-70
2023/01/13 00:29:57;;;;;;;13.38;1.92;;;;;;;;;;5007609;28;20042;-70
2023/01/13 00:32:23;;;;;;;9.10;1.73;;;;;;;;;;5026839;28;20033;-69
2023/01/13 00:34:50;;;;;;;8.77;1.58;;;;;;;;;;5026780;28;20054;-70
2023/01/13 00:37:16;;;;;;;10.88;2.20;;;;;;;;;;5024896;28;20103;-69
2023/01/13 00:39:44;;;;;;;10.65;1.80;;;;;;;;;;5024183;28;20041;-68
2023/01/13 00:44:56;;;;;;;9.40;2.70;;;;;;;;;;5025582;28;20047;-68
2023/01/13 00:47:23;;;;;;;9.77;2.38;;;;;;;;;;5024898;28;20030;-67
2023/01/13 00:49:49;;;;;;;9.98;2.13;;;;;;;;;;5026822;28;20821;-69
2023/01/13 00:52:16;;;;;;;11.68;2.45;;;;;;;;;;5027703;28;20072;-70
2023/01/13 00:54:43;;;;;;;6.97;2.25;;;;;;;;;;5026353;28;20740;-68
2023/01/13 00:57:09;;;;;;;15.30;2.90;;;;;;;;;;5026333;28;20045;-68
2023/01/13 00:59:36;;;;;;;9.55;2.53;;;;;;;;;;5027393;28;20151;-69
2023/01/13 01:02:03;;;;;;;15.57;3.83;;;;;;;;;;5026364;28;20037;-69
2023/01/13 01:04:29;;;;;;;18.42;3.42;;;;;;;;;;5029963;28;20046;-69
2023/01/13 01:06:56;;;;;;;19.45;3.58;;;;;;;;;;5023011;28;20075;-69
2023/01/13 01:09:23;;;;;;;11.70;3.72;;;;;;;;;;5002382;28;20103;-67
2023/01/13 01:11:49;;;;;;;14.95;3.97;;;;;;;;;;5010319;28;20092;-66
2023/01/13 01:14:16;;;;;;;17.13;4.22;;;;;;;;;;5028342;28;20558;-69
2023/01/13 01:16:42;;;;;;;30.65;5.30;;;;;;;;;;5024536;28;20114;-68
2023/01/13 01:19:11;;;;;;;17.30;3.38;;;;;;;;;;5027873;28;20128;-68
2023/01/13 01:21:38;;;;;;;13.70;2.42;;;;;;;;;;5016973;28;20076;-69
2023/01/13 01:24:05;;;;;;;10.52;1.70;;;;;;;;;;5023492;28;20033;-68
2023/01/13 01:26:32;;;;;;;7.63;1.88;;;;;;;;;;5026114;28;20096;-68
2023/01/13 01:29:01;;;;;;;9.90;1.63;;;;;;;;;;5026985;28;20822;-69
2023/01/13 01:31:32;;;;;;;7.43;1.25;;;;;;;;;;5025527;28;20033;-67
2023/01/13 01:33:59;;;;;;;3.78;1.27;;;;;;;;;;5028734;28;20057;-68
2023/01/13 01:36:28;;;;;;;3.67;1.10;;;;;;;;;;5026042;28;20128;-68
2023/01/13 01:38:58;;;;;;;6.97;1.48;;;;;;;;;;5029073;28;20037;-69
2023/01/13 01:41:27;;;;;;;7.80;1.50;;;;;;;;;;5027235;28;20500;-70
2023/01/13 01:43:58;;;;;;;5.72;1.77;;;;;;;;;;5028436;28;20136;-69
2023/01/13 01:46:32;;;;;;;5.03;1.00;;;;;;;;;;5026312;28;21808;-68
2023/01/13 01:49:11;;;;;;;3.53;0.90;;;;;;;;;;5017452;28;20060;-68
2023/01/13 01:52:10;;;;;;;6.15;1.10;;;;;;;;;;5023403;28;20552;-69
2023/01/13 01:54:46;;;;;;;4.25;1.00;;;;;;;;;;4983490;28;20561;-69
2023/01/13 01:57:15;;;;;;;3.83;1.00;;;;;;;;;;5020774;28;20123;-69
2023/01/13 01:59:42;;;;;;;6.47;1.23;;;;;;;;;;5009260;28;20071;-69
2023/01/13 02:02:09;;;;;;;9.20;1.13;;;;;;;;;;5024002;28;20756;-68
2023/01/13 02:04:39;;;;;;;5.35;1.50;;;;;;;;;;5025306;28;20041;-67
2023/01/13 02:07:05;;;;;;;8.93;3.55;;;;;;;;;;5028383;28;20051;-69
2023/01/13 02:09:33;;;;;;;6.20;1.80;;;;;;;;;;5025398;28;20359;-68
2023/01/13 02:14:46;;;;;;;5.28;1.65;;;;;;;;;;4980399;28;20061;-68
2023/01/13 02:17:51;;;;;;;7.50;1.25;;;;;;;;;;4922203;28;20404;-68
2023/01/13 02:20:36;;;;;;;5.75;1.48;;;;;;;;;;4930705;28;20107;-70
2023/01/13 02:24:52;;;;;;;7.70;1.42;;;;;;;;;;4937428;28;20046;-70
2023/01/13 02:26:13;;;;;;;3.97;1.00;;;;;;;;;;4921541;28;20054;-69
2023/01/13 02:31:41;;;;;;;5.18;1.02;;;;;;;;;;4938198;28;20046;-69
2023/01/13 02:34:07;;;;;;;;;;;;;;;;;;4938245;28;20094;-68
2023/01/13 02:36:34;;;;;;;5.40;1.00;;;;;;;;;;4936706;28;19922;-68
2023/01/13 02:39:02;;;;;;;5.30;1.00;;;;;;;;;;4936241;28;20130;-68
2023/01/13 02:44:23;;;;;;;7.93;1.15;;;;;;;;;;4977529;28;20530;-69
2023/01/13 02:46:49;;;;;;;5.13;1.45;;;;;;;;;;4977254;28;20073;-68
2023/01/13 02:49:22;;;;;;;4.65;1.20;;;;;;;;;;5020449;28;20432;-68
2023/01/13 02:51:49;;;;;;;3.63;1.02;;;;;;;;;;5025016;28;20111;-67
2023/01/13 02:54:19;;;;;;;5.38;1.23;;;;;;;;;;5007662;28;20064;-67
2023/01/13 02:56:48;;;;;;;5.45;1.23;;;;;;;;;;5007743;28;21798;-68
2023/01/13 02:59:15;;;;;;;5.63;1.25;;;;;;;;;;5010037;28;20516;-70
2023/01/13 03:01:42;;;;;;;7.65;1.48;;;;;;;;;;5025133;28;20120;-68
2023/01/13 03:04:13;;;;;;;8.98;1.98;;;;;;;;;;5027457;28;20050;-69
2023/01/13 03:06:53;;;;;;;10.18;1.75;;;;;;;;;;5025867;28;20390;-67
2023/01/13 03:09:28;;;;;;;4.60;1.40;;;;;;;;;;5033572;28;20041;-69
2023/01/13 03:12:07;;;;;;;7.60;1.10;;;;;;;;;;5030760;28;20037;-68
2023/01/13 03:14:43;;;;;;;9.70;1.20;;;;;;;;;;5013857;28;20044;-68
2023/01/13 03:17:21;;;;;;;8.55;1.02;;;;;;;;;;5026509;28;20045;-68
2023/01/13 03:19:58;;;;;;;2.80;0.88;;;;;;;;;;5025702;28;20046;-67
2023/01/13 03:22:44;;;;;;;4.47;1.00;;;;;;;;;;5025399;28;20033;-68
2023/01/13 03:25:11;;;;;;;3.78;1.00;;;;;;;;;;5026565;28;20053;-69
2023/01/13 03:27:50;;;;;;;6.18;1.13;;;;;;;;;;5006654;28;20095;-68
2023/01/13 03:30:20;;;;;;;3.38;0.88;;;;;;;;;;5025819;28;20069;-69
2023/01/13 03:32:52;;;;;;;3.10;0.90;;;;;;;;;;5023845;28;20407;-69
2023/01/13 03:35:39;;;;;;;6.82;1.13;;;;;;;;;;5006466;28;20041;-69
2023/01/13 03:38:10;;;;;;;2.80;0.90;;;;;;;;;;5026049;28;20047;-69
2023/01/13 03:40:41;;;;;;;2.92;0.98;;;;;;;;;;5025295;28;20139;-69
2023/01/13 03:45:58;;;;;;;7.88;1.30;;;;;;;;;;5024443;28;20568;-68
2023/01/13 03:48:26;;;;;;;4.30;1.10;;;;;;;;;;5011813;28;20041;-68
2023/01/13 03:50:55;;;;;;;7.07;1.33;;;;;;;;;;5024870;28;20041;-69
2023/01/13 03:53:25;;;;;;;9.00;1.40;;;;;;;;;;5023782;28;20142;-70
2023/01/13 03:55:56;;;;;;;3.55;1.15;;;;;;;;;;5024301;28;20048;-69
2023/01/13 03:58:26;;;;;;;4.93;1.17;;;;;;;;;;5023734;28;20051;-69
2023/01/13 04:00:58;;;;;;;4.25;1.27;;;;;;;;;;5006350;28;20041;-70
2023/01/13 04:03:29;;;;;;;5.13;1.08;;;;;;;;;;5023832;28;20041;-70
2023/01/13 04:06:02;;;;;;;6.05;1.25;;;;;;;;;;5008722;28;20045;-69
2023/01/13 04:08:30;;;;;;;3.75;1.05;;;;;;;;;;5014283;28;20044;-70
2023/01/13 04:11:07;;;;;;;4.82;0.90;;;;;;;;;;4985056;28;20088;-67
2023/01/13 04:13:36;;;;;;;5.13;1.10;;;;;;;;;;5022253;28;20081;-68
2023/01/13 04:16:05;;;;;;;3.53;0.95;;;;;;;;;;5024677;28;20061;-67
2023/01/13 04:18:32;;;;;;;6.15;2.25;;;;;;;;;;5023152;28;20037;-67
2023/01/13 04:21:00;;;;;;;3.70;1.33;;;;;;;;;;5024742;28;20107;-67
2023/01/13 04:23:27;;;;;;;3.63;0.90;;;;;;;;;;5026985;28;20684;-67
2023/01/13 04:25:54;;;;;;;6.60;1.40;;;;;;;;;;5027792;28;20037;-67
2023/01/13 04:28:21;;;;;;;7.30;2.00;;;;;;;;;;5030181;28;20037;-67
2023/01/13 04:30:47;;;;;;;5.25;1.65;;;;;;;;;;5011314;28;20095;-68
2023/01/13 04:33:15;;;;;;;4.63;1.50;;;;;;;;;;5027696;28;20518;-69
2023/01/13 04:35:42;;;;;;;6.53;1.50;;;;;;;;;;5025621;28;20041;-68
2023/01/13 04:38:10;;;;;;;4.20;1.25;;;;;;;;;;5028185;28;20090;-68
2023/01/13 04:40:37;;;;;;;4.78;1.02;;;;;;;;;;5027720;28;20049;-69
2023/01/13 04:43:03;;;;;;;3.67;1.17;;;;;;;;;;5028369;28;20129;-67
2023/01/13 04:45:30;;;;;;;3.25;1.10;;;;;;;;;;5028080;28;20042;-68
2023/01/13 04:47:57;;;;;;;4.32;1.35;;;;;;;;;;5028832;28;20040;-69
2023/01/13 04:50:24;;;;;;;4.07;1.23;;;;;;;;;;5026625;28;20076;-68
2023/01/13 04:52:51;;;;;;;5.05;1.20;;;;;;;;;;5028515;28;20071;-67
2023/01/13 04:55:18;;;;;;;5.00;1.10;;;;;;;;;;5029331;28;20041;-67
2023/01/13 04:57:45;;;;;;;7.85;1.15;;;;;;;;;;5028258;28;20136;-67
2023/01/13 05:00:12;;;;;;;3.17;1.13;;;;;;;;;;5028383;28;20136;-68
2023/01/13 05:02:39;;;;;;;5.88;2.45;;;;;;;;;;5030177;28;20156;-70
2023/01/13 05:05:06;;;;;;;11.38;2.55;;;;;;;;;;5028305;28;20037;-67
2023/01/13 05:07:33;;;;;;;9.23;2.60;;;;;;;;;;5031772;28;20116;-68
2023/01/13 05:10:00;;;;;;;4.60;2.00;;;;;;;;;;5036396;28;20037;-68
2023/01/13 05:17:58;;;;;;;4.55;1.48;;;;;;;;;;5030881;28;20051;-69
2023/01/13 05:20:25;;;;;;;4.57;1.20;;;;;;;;;;5033742;28;20029;-69
2023/01/13 05:25:38;;;;;;;3.90;1.17;;;;;;;;;;5036044;28;20508;-69
2023/01/13 05:28:05;;;;;;;4.00;1.17;;;;;;;;;;5033894;28;20076;-69
2023/01/13 05:30:33;;;;;;;5.70;1.42;;;;;;;;;;5029091;28;20044;-70
2023/01/13 05:33:00;;;;;;;4.78;1.40;;;;;;;;;;5028048;28;20060;-69
2023/01/13 05:35:28;;;;;;;4.45;1.38;;;;;;;;;;5007064;28;20037;-69
2023/01/13 05:37:55;;;;;;;3.75;1.48;;;;;;;;;;5028246;28;21805;-70
2023/01/13 05:43:18;;;;;;;4.93;1.67;;;;;;;;;;5020841;28;20119;-69
2023/01/13 05:45:59;;;;;;;5.63;1.42;;;;;;;;;;5025852;28;20128;-69
2023/01/13 05:48:39;;;;;;;4.10;1.20;;;;;;;;;;5026210;28;20073;-69
2023/01/13 05:51:08;;;;;;;4.13;1.30;;;;;;;;;;5027374;28;20552;-69
2023/01/13 05:53:35;;;;;;;8.95;1.23;;;;;;;;;;5008799;28;20064;-69
2023/01/13 05:56:05;;;;;;;4.25;1.20;;;;;;;;;;5027439;28;20119;-70
2023/01/13 05:58:32;;;;;;;4.60;1.23;;;;;;;;;;5027389;28;20093;-67
2023/01/13 06:01:04;;;;;;;4.15;1.20;;;;;;;;;;5027611;28;20053;-70
2023/01/13 06:03:30;;;;;;;4.50;1.30;;;;;;;;;;5026020;28;20445;-68
2023/01/13 06:06:01;;;;;;;3.35;1.02;;;;;;;;;;5027203;28;20041;-69
2023/01/13 06:08:28;;;;;;;2.40;0.95;;;;;;;;;;5024329;28;20037;-70
2023/01/13 06:10:54;;;;;;;4.47;1.00;;;;;;;;;;5027352;28;20041;-68
2023/01/13 06:13:21;;;;;;;4.55;0.88;;;;;;;;;;5021976;28;20128;-68
2023/01/13 06:15:48;;;;;;;3.05;0.75;;;;;;;;;;5028219;28;20057;-70
2023/01/13 06:18:14;;;;;;;4.15;1.05;;;;;;;;;;5028085;28;20033;-68
2023/01/13 06:20:41;;;;;;;5.18;1.10;;;;;;;;;;5025425;28;20048;-68
2023/01/13 06:23:11;;;;;;;6.20;1.15;;;;;;;;;;5027424;28;20564;-70
2023/01/13 06:25:44;;;;;;;5.35;0.93;;;;;;;;;;5027600;28;20033;-70
2023/01/13 06:28:11;;;;;;;3.92;1.17;;;;;;;;;;5008866;28;20045;-70
2023/01/13 06:30:39;;;;;;;4.40;1.20;;;;;;;;;;5007971;28;20045;-69
2023/01/13 06:33:09;;;;;;;5.95;1.10;;;;;;;;;;5028163;28;20057;-68
2023/01/13 06:35:36;;;;;;;4.07;1.05;;;;;;;;;;5025116;28;20037;-69
2023/01/13 06:38:07;;;;;;;2.97;1.15;;;;;;;;;;5026693;28;20117;-70
2023/01/13 06:40:34;;;;;;;3.47;1.23;;;;;;;;;;5025996;28;20037;-70
2023/01/13 06:43:16;;;;;;;3.50;1.05;;;;;;;;;;5028749;28;20041;-70
2023/01/13 06:46:01;;;;;;;6.22;1.23;;;;;;;;;;5023967;28;20433;-71
2023/01/13 06:48:31;;;;;;;2.35;0.73;;;;;;;;;;5003834;28;20091;-72
2023/01/13 06:50:58;;;;;;;3.63;0.95;;;;;;;;;;5025871;28;20057;-71
2023/01/13 06:53:25;;;;;;;2.97;0.85;;;;;;;;;;5027683;28;20053;-71
2023/01/13 06:55:51;;;;;;;3.40;0.93;;;;;;;;;;5027217;28;20037;-70
2023/01/13 06:58:18;;;;;;;2.70;0.98;;;;;;;;;;5007506;28;20123;-69
2023/01/13 07:00:50;;;;;;;3.05;0.90;;;;;;;;;;5025800;28;20160;-69
2023/01/13 07:03:17;;;;;;;2.53;0.75;;;;;;;;;;5014972;28;20037;-70
2023/01/13 07:05:44;;;;;;;2.83;0.80;;;;;;;;;;5006186;28;20390;-70
2023/01/13 07:08:11;;;;;;;3.92;1.00;;;;;;;;;;5024686;28;20153;-70
2023/01/13 07:10:38;;;;;;;5.72;1.13;;;;;;;;;;5026601;28;20037;-70
2023/01/13 07:15:54;;;;;;;1.83;0.63;;;;;;;;;;5024368;28;20040;-73
2023/01/13 07:18:20;;;;;;;3.00;1.10;;;;;;;;;;5026203;28;20766;-68
2023/01/13 07:20:57;;;;;;;3.47;0.88;;;;;;;;;;5026805;28;20041;-68
2023/01/13 07:23:24;;;;;;;3.20;0.80;;;;;;;;;;5026731;28;20040;-68
2023/01/13 07:25:51;;;;;;;2.65;0.75;;;;;;;;;;5018156;28;20755;-69
2023/01/13 07:28:17;;;;;;;3.53;0.95;;;;;;;;;;5026142;28;20098;-70
2023/01/13 07:30:44;;;;;;;3.90;1.10;;;;;;;;;;5008499;28;20884;-69
2023/01/13 07:33:11;;;;;;;7.28;1.00;;;;;;;;;;5025143;28;20080;-69
2023/01/13 07:35:37;;;;;;;2.88;0.90;;;;;;;;;;5024493;28;20921;-69
2023/01/13 07:38:04;;;;;;;3.15;0.95;;;;;;;;;;5025944;28;20041;-69
2023/01/13 07:40:31;;;;;;;4.22;0.90;;;;;;;;;;5023988;28;20048;-70
2023/01/13 07:45:42;;;;;;;2.42;0.68;;;;;;;;;;5024544;28;20080;-69
2023/01/13 07:48:09;;;;;;;2.80;0.95;;;;;;;;;;5019693;28;20064;-70
2023/01/13 07:50:36;;;;;;;5.03;1.23;;;;;;;;;;5025098;28;20036;-70
2023/01/13 07:53:03;;;;;;;4.25;1.30;;;;;;;;;;5024857;28;20046;-71
2023/01/13 07:55:30;;;;;;;6.25;1.23;;;;;;;;;;5006931;28;20048;-69
2023/01/13 07:57:57;;;;;;;3.20;1.20;;;;;;;;;;5024139;28;20041;-70
2023/01/13 08:00:23;;;;;;;4.00;1.10;;;;;;;;;;5025692;28;20036;-70
2023/01/13 08:02:50;;;;;;;3.35;1.08;;;;;;;;;;5025974;28;20063;-69
2023/01/13 08:05:17;;;;;;;2.47;0.80;;;;;;;;;;5023652;28;20037;-68
2023/01/13 08:07:43;;;;;;;3.33;0.90;;;;;;;;;;5024545;28;20030;-69
2023/01/13 08:10:10;;;;;;;3.13;1.00;;;;;;;;;;5024380;28;20036;-68
2023/01/13 08:15:22;;;;;;;2.33;0.77;;;;;;;;;;5024800;28;20092;-70
2023/01/13 08:17:49;;;;;;;2.55;0.70;;;;;;;;;;5025371;28;20064;-70
2023/01/13 08:20:15;;;;;;;2.83;0.85;;;;;;;;;;5024910;28;20065;-69
2023/01/13 08:22:43;;;;;;;2.88;0.90;;;;;;;;;;5023548;28;20128;-70
2023/01/13 08:25:09;;;;;;;7.25;1.02;;;;;;;;;;5023157;28;20048;-70
2023/01/13 08:27:36;;;;;;;6.20;1.02;;;;;;;;;;5023788;28;20119;-69
2023/01/13 08:30:03;;;;;;;2.70;0.80;;;;;;;;;;5026361;28;20037;-70
2023/01/13 08:32:29;;;;;;;3.80;1.15;;;;;;;;;;5024253;28;20045;-70
2023/01/13 08:34:56;;;;;;;3.92;0.98;;;;;;;;;;5023915;28;20044;-71
2023/01/13 08:37:23;;;;;;;2.80;0.80;;;;;;;;;;5024694;28;20041;-71
2023/01/13 08:39:49;;;;;;;2.47;0.80;;;;;;;;;;5026380;28;20033;-71
2023/01/13 08:42:16;;;;;;;3.47;0.95;;;;;;;;;;5025594;28;20196;-69
2023/01/13 08:44:43;;;;;;;2.78;0.82;;;;;;;;;;5024060;28;20774;-69
2023/01/13 08:47:09;;;;;;;2.72;0.80;;;;;;;;;;5026963;28;20044;-69
2023/01/13 08:49:36;;;;;;;2.25;0.68;;;;;;;;;;5025234;28;20041;-70
2023/01/13 08:52:03;;;;;;;2.85;0.90;;;;;;;;;;5026534;28;20094;-71
2023/01/13 08:54:30;;;;;;;5.45;0.90;;;;;;;;;;5023175;28;20069;-70
2023/01/13 08:57:02;;;;;;;3.45;0.90;;;;;;;;;;5024890;28;20049;-70
2023/01/13 08:59:28;;;;;;;2.22;0.73;;;;;;;;;;5025477;28;20046;-70
2023/01/13 09:01:55;;;;;;;3.03;0.90;;;;;;;;;;5027169;28;20044;-70
2023/01/13 09:04:23;;;;;;;4.00;0.85;;;;;;;;;;5024091;28;20126;-71
2023/01/13 09:06:49;;;;;;;2.58;0.80;;;;;;;;;;5023115;28;20912;-72
2023/01/13 09:09:17;;;;;;;4.57;1.00;;;;;;;;;;5025252;28;20055;-71
2023/01/13 09:14:31;;;;;;;7.55;1.00;;;;;;;;;;5026601;28;20549;-72
2023/01/13 09:16:58;;;;;;;4.57;1.13;;;;;;;;;;5028065;28;20041;-70
2023/01/13 09:19:26;;;;;;;4.32;1.00;;;;;;;;;;5010501;28;20079;-70
2023/01/13 09:21:53;;;;;;;2.92;1.00;;;;;;;;;;5029434;28;20043;-70
2023/01/13 09:24:20;;;;;;;2.92;0.90;;;;;;;;;;5021598;28;20239;-72
2023/01/13 09:26:46;;;;;;;6.13;1.02;;;;;;;;;;5027350;28;20505;-72
2023/01/13 09:29:14;;;;;;;2.63;0.98;;;;;;;;;;5027055;28;20114;-70
2023/01/13 09:31:40;;;;;;;2.45;0.88;;;;;;;;;;5025489;28;20247;-70
2023/01/13 09:36:55;;;;;;;2.80;1.10;;;;;;;;;;5025536;28;20465;-71
2023/01/13 09:39:22;;;;;;;2.88;0.80;;;;;;;;;;5027070;28;20445;-71
2023/01/13 09:44:47;;;;;;;2.65;0.85;;;;;;;;;;5024628;28;20040;-71
2023/01/13 09:47:19;;;;;;;3.55;0.82;;;;;;;;;;5027452;28;20049;-71
2023/01/13 09:49:46;;;;;;;3.10;0.95;;;;;;;;;;5026608;28;20463;-72
2023/01/13 09:52:25;;;;;;;2.70;0.63;;;;;;;;;;5025902;28;20204;-72
2023/01/13 09:54:51;;;;;;;4.20;0.60;;;;;;;;;;5024411;28;20057;-72
2023/01/13 09:57:20;;;;;;;2.92;0.80;;;;;;;;;;5027253;28;20029;-70
2023/01/13 09:59:47;;;;;;;3.35;0.73;;;;;;;;;;5027080;28;20391;-69
2023/01/13 10:02:14;;;;;;;4.68;0.90;;;;;;;;;;5008141;28;20079;-69
2023/01/13 10:04:40;;;;;;;3.78;0.95;;;;;;;;;;5024986;28;20527;-69
2023/01/13 10:07:11;;;;;;;3.15;0.85;;;;;;;;;;5027204;28;20069;-70
2023/01/13 10:09:48;;;;;;;2.85;0.88;;;;;;;;;;5026914;28;20042;-69
2023/01/13 10:15:03;;;;;;;2.58;0.80;;;;;;;;;;5024698;28;20227;-69
2023/01/13 10:17:42;;;;;;;3.35;0.77;;;;;;;;;;5026246;28;20528;-69
2023/01/13 10:20:16;;;;;;;2.67;0.65;;;;;;;;;;5026388;28;20069;-69
2023/01/13 10:22:46;;;;;;;2.55;0.70;;;;;;;;;;5027897;28;20040;-69
2023/01/13 10:25:20;;;;;;;1.95;0.73;;;;;;;;;;5026288;28;20116;-70
2023/01/13 10:27:51;;;;;;;2.72;0.73;;;;;;;;;;5026601;28;20671;-71
2023/01/13 10:30:18;;;;;;;2.67;0.70;;;;;;;;;;5028261;28;20069;-71
2023/01/13 10:33:01;;;;;;;2.55;0.80;;;;;;;;;;5025434;28;20048;-69
2023/01/13 10:35:46;;;;;;;1.80;0.60;;;;;;;;;;5025076;28;20142;-70
2023/01/13 10:38:15;;;;;;;1.55;0.60;;;;;;;;;;5019610;28;20041;-71
2023/01/13 10:40:49;;;;;;;2.45;0.70;;;;;;;;;;5026693;28;20041;-71
2023/01/13 10:43:16;;;;;;;3.15;0.90;;;;;;;;;;5025716;28;20585;-71
2023/01/13 10:45:51;;;;;;;2.08;0.60;;;;;;;;;;5020933;28;20046;-70
2023/01/13 10:48:18;;;;;;;2.92;0.90;;;;;;;;;;5027397;28;20394;-71
2023/01/13 10:50:47;;;;;;;4.85;0.90;;;;;;;;;;5025463;28;20120;-71
2023/01/13 10:53:18;;;;;;;3.10;0.98;;;;;;;;;;5027032;28;20615;-71
2023/01/13 10:55:57;;;;;;;1.80;0.57;;;;;;;;;;5025011;28;20124;-71
2023/01/13 10:58:24;;;;;;;2.70;0.75;;;;;;;;;;5025132;28;20064;-71
2023/01/13 11:00:59;;;;;;;2.72;0.75;;;;;;;;;;5026182;28;20037;-70
2023/01/13 11:03:27;;;;;;;2.15;0.70;;;;;;;;;;5025441;28;20048;-70
2023/01/13 11:05:55;;;;;;;2.33;0.80;;;;;;;;;;5024438;28;20125;-71
2023/01/13 11:08:23;;;;;;;3.38;0.85;;;;;;;;;;5006747;28;20362;-70
2023/01/13 11:10:51;;;;;;;2.58;0.70;;;;;;;;;;5025277;28;20037;-70
2023/01/13 11:13:26;;;;;;;5.18;0.70;;;;;;;;;;5025702;28;20446;-70
2023/01/13 11:15:54;;;;;;;2.53;0.80;;;;;;;;;;5025616;28;20072;-70
2023/01/13 11:18:23;;;;;;;2.13;0.80;;;;;;;;;;5006722;28;20051;-70
2023/01/13 11:20:51;;;;;;;2.58;0.88;;;;;;;;;;5026124;28;20052;-69
2023/01/13 11:23:26;;;;;;;2.78;0.88;;;;;;;;;;5027190;28;20037;-69
2023/01/13 11:26:04;;;;;;;3.33;0.80;;;;;;;;;;5023514;28;20445;-70
2023/01/13 11:28:30;;;;;;;2.10;0.70;;;;;;;;;;5020314;28;20043;-70
2023/01/13 11:31:18;;;;;;;3.38;0.95;;;;;;;;;;5026599;28;20047;-70
2023/01/13 11:33:53;;;;;;;2.55;0.80;;;;;;;;;;5025976;28;20179;-71
2023/01/13 11:36:22;;;;;;;1.77;0.55;;;;;;;;;;5025252;28;20045;-71
2023/01/13 11:38:53;;;;;;;2.85;0.90;;;;;;;;;;5026851;28;20059;-70
2023/01/13 11:41:20;;;;;;;2.70;0.80;;;;;;;;;;5026192;28;20037;-71
2023/01/13 11:43:55;;;;;;;2.30;0.77;;;;;;;;;;5025004;28;20043;-69
2023/01/13 11:46:26;;;;;;;2.38;0.70;;;;;;;;;;5025436;28;20045;-69
2023/01/13 11:48:55;;;;;;;1.73;0.63;;;;;;;;;;5026314;28;20120;-69
2023/01/13 11:51:21;;;;;;;2.40;0.70;;;;;;;;;;5024305;28;20049;-69
2023/01/13 11:53:48;;;;;;;2.33;0.70;;;;;;;;;;5024832;28;20714;-69
2023/01/13 11:56:28;;;;;;;1.98;0.63;;;;;;;;;;5023922;28;20033;-70
2023/01/13 11:58:55;;;;;;;2.20;0.70;;;;;;;;;;5006775;28;21698;-69
2023/01/13 12:01:24;;;;;;;1.95;0.60;;;;;;;;;;5018415;28;20063;-70
2023/01/13 12:04:20;;;;;;;2.00;0.65;;;;;;;;;;5025465;28;20044;-71
2023/01/13 12:06:51;;;;;;;2.78;0.77;;;;;;;;;;4934093;28;20134;-70
2023/01/13 12:09:30;;;;;;;1.70;0.68;;;;;;;;;;5025712;28;20034;-70
2023/01/13 12:14:59;;;;;;;1.90;0.60;;;;;;;;;;5028389;28;20140;-70
2023/01/13 12:17:34;;;;;;;2.75;0.80;;;;;;;;;;5016049;28;20072;-69
2023/01/13 12:20:07;;;;;;;2.80;0.60;;;;;;;;;;5025366;28;20045;-71
2023/01/13 12:22:34;;;;;;;4.05;0.88;;;;;;;;;;5027374;28;20041;-69
2023/01/13 12:25:05;;;;;;;1.95;0.60;;;;;;;;;;5019435;28;20045;-69
2023/01/13 12:27:40;;;;;;;2.95;0.90;;;;;;;;;;5007065;28;20047;-70
2023/01/13 12:30:18;;;;;;;1.85;0.60;;;;;;;;;;5027119;28;20033;-70
2023/01/13 12:32:45;;;;;;;2.05;0.70;;;;;;;;;;5025302;28;20128;-69
2023/01/13 12:35:12;;;;;;;1.95;0.60;;;;;;;;;;5024835;28;20038;-70
2023/01/13 12:37:56;;;;;;;1.95;0.68;;;;;;;;;;5025301;28;20152;-70
2023/01/13 12:40:29;;;;;;;2.83;0.80;;;;;;;;;;5025527;28;20101;-69
2023/01/13 12:45:46;;;;;;;2.88;0.70;;;;;;;;;;5027583;28;20524;-70
2023/01/13 12:48:31;;;;;;;2.78;0.70;;;;;;;;;;5028199;28;20582;-70
2023/01/13 12:51:01;;;;;;;2.03;0.70;;;;;;;;;;5027253;28;20041;-71
2023/01/13 12:53:37;;;;;;;3.88;0.70;;;;;;;;;;5027981;28;21819;-70
2023/01/13 12:56:26;;;;;;;1.65;0.57;;;;;;;;;;5020887;28;20131;-69
2023/01/13 12:59:13;;;;;;;1.92;0.60;;;;;;;;;;5029241;28;20041;-69
2023/01/13 13:01:39;;;;;;;2.22;0.68;;;;;;;;;;5029625;28;20040;-69
2023/01/13 13:04:32;;;;;;;3.17;0.70;;;;;;;;;;5030792;28;20040;-69
2023/01/13 13:07:08;;;;;;;2.28;0.70;;;;;;;;;;5005826;28;20049;-69
2023/01/13 13:09:42;;;;;;;2.33;0.70;;;;;;;;;;5029498;28;20050;-70
2023/01/13 13:15:20;;;;;;;2.30;0.70;;;;;;;;;;5029798;28;20240;-70
2023/01/13 13:18:01;;;;;;;3.92;0.95;;;;;;;;;;5010957;28;20041;-69
2023/01/13 13:20:49;;;;;;;5.60;0.80;;;;;;;;;;5027322;28;20450;-68
2023/01/13 13:23:30;;;;;;;2.03;0.70;;;;;;;;;;5033360;28;20040;-68
2023/01/13 13:26:06;;;;;;;2.00;0.70;;;;;;;;;;5033521;28;20030;-71
2023/01/13 13:28:38;;;;;;;2.88;0.98;;;;;;;;;;5013959;28;20038;-69
2023/01/13 13:31:15;;;;;;;4.30;1.00;;;;;;;;;;5031456;28;20136;-70
2023/01/13 13:33:49;;;;;;;5.10;1.20;;;;;;;;;;5029695;28;20061;-69
2023/01/13 13:36:25;;;;;;;7.13;3.00;;;;;;;;;;5032582;28;20029;-70
2023/01/13 13:47:25;;;;;;;3.58;1.00;;;;;;;;;;5030043;28;20044;-69
2023/01/13 13:49:53;;;;;;;2.50;0.70;;;;;;;;;;5031787;28;20541;-69
2023/01/13 13:52:58;;;;;;;4.20;0.82;;;;;;;;;;5028284;28;20103;-73
2023/01/13 13:55:26;;;;;;;2.38;0.70;;;;;;;;;;4986231;28;20435;-71
2023/01/13 13:57:56;;;;;;;2.42;0.70;;;;;;;;;;4983602;28;20034;-68
2023/01/13 14:00:40;;;;;;;3.55;0.68;;;;;;;;;;5003288;28;20047;-70
2023/01/13 14:03:18;;;;;;;2.45;0.80;;;;;;;;;;5029201;28;20137;-69
2023/01/13 14:06:05;;;;;;;2.47;0.80;;;;;;;;;;5010253;28;20116;-70
2023/01/13 14:08:35;;;;;;;1.50;0.63;;;;;;;;;;5026666;28;20127;-70
2023/01/13 14:11:16;;;;;;;1.95;0.60;;;;;;;;;;5008557;28;20040;-69
2023/01/13 14:13:43;;;;;;;2.65;0.80;;;;;;;;;;5028223;28;20095;-70
2023/01/13 14:16:12;;;;;;;2.40;0.77;;;;;;;;;;5010483;28;20069;-70
2023/01/13 14:18:45;;;;;;;2.28;0.68;;;;;;;;;;5029222;28;20045;-70
2023/01/13 14:21:24;;;;;;;2.10;0.63;;;;;;;;;;5027942;28;20037;-70
2023/01/13 14:24:15;;;;;;;2.20;0.70;;;;;;;;;;4975147;28;20042;-71
2023/01/13 14:26:42;;;;;;;2.60;0.80;;;;;;;;;;4973223;28;20054;-72
2023/01/13 14:29:13;;;;;;;2.60;0.80;;;;;;;;;;4971730;28;20893;-70
2023/01/13 14:31:41;;;;;;;1.60;0.50;;;;;;;;;;4973111;28;20042;-71
2023/01/13 14:34:08;;;;;;;2.88;0.77;;;;;;;;;;4972985;28;20042;-70
2023/01/13 14:36:37;;;;;;;2.63;0.60;;;;;;;;;;4973237;28;20190;-70
2023/01/13 14:39:04;;;;;;;2.63;0.77;;;;;;;;;;4972138;28;20535;-70
2023/01/13 14:41:36;;;;;;;2.70;0.70;;;;;;;;;;4972199;28;20069;-73
2023/01/13 14:44:25;;;;;;;2.17;0.70;;;;;;;;;;4975129;28;20153;-66
2023/01/13 14:46:56;;;;;;;2.13;0.57;;;;;;;;;;4948634;28;20222;-69
2023/01/13 14:49:22;;;;;;;2.40;0.73;;;;;;;;;;4948448;28;20054;-70
2023/01/13 14:51:49;;;;;;;2.40;0.75;;;;;;;;;;4934519;28;20052;-69
2023/01/13 14:54:34;;;;;;;2.35;0.77;;;;;;;;;;4933734;28;21162;-70
2023/01/13 14:57:20;;;;;;;2.63;0.80;;;;;;;;;;4935635;28;20054;-70
2023/01/13 14:59:56;;;;;;;3.67;0.85;;;;;;;;;;4932458;28;20051;-71
2023/01/13 15:02:43;;;;;;;3.67;0.85;;;;;;;;;;4973136;28;20120;-69
2023/01/13 15:05:18;;;;;;;3.67;0.95;;;;;;;;;;4966557;28;20042;-71
2023/01/13 15:07:51;;;;;;;2.40;0.82;;;;;;;;;;4982483;28;20038;-71
2023/01/13 15:10:23;;;;;;;3.40;1.00;;;;;;;;;;4984109;28;20043;-71
2023/01/13 15:12:50;;;;;;;3.10;0.80;;;;;;;;;;4984073;28;20050;-71
2023/01/13 15:15:23;;;;;;;1.95;0.60;;;;;;;;;;4983817;28;20164;-70
2023/01/13 15:17:51;;;;;;;2.40;0.80;;;;;;;;;;4984228;28;20176;-72
2023/01/13 15:20:18;;;;;;;2.30;0.70;;;;;;;;;;4976210;28;20479;-71
2023/01/13 15:22:46;;;;;;;2.97;0.85;;;;;;;;;;4980331;28;20034;-71
2023/01/13 15:25:13;;;;;;;5.95;0.82;;;;;;;;;;5005525;28;20042;-71
2023/01/13 15:27:41;;;;;;;2.53;0.90;;;;;;;;;;5008069;28;20089;-70
2023/01/13 15:30:15;;;;;;;3.67;0.95;;;;;;;;;;5006218;28;20046;-72
2023/01/13 15:32:42;;;;;;;4.80;0.88;;;;;;;;;;4998225;28;20046;-71
2023/01/13 15:35:12;;;;;;;3.42;1.20;;;;;;;;;;4989600;28;20064;-71
2023/01/13 15:37:39;;;;;;;2.83;0.90;;;;;;;;;;5007463;28;20213;-71
2023/01/13 15:40:11;;;;;;;3.28;1.10;;;;;;;;;;4995795;28;21706;-70
2023/01/13 15:48:08;;;;;;;3.97;1.25;;;;;;;;;;5003744;28;20174;-70
2023/01/13 15:50:34;;;;;;;4.30;1.20;;;;;;;;;;4998456;28;20681;-71
2023/01/13 15:53:02;;;;;;;4.32;1.10;;;;;;;;;;5025070;28;20508;-70
2023/01/13 15:55:29;;;;;;;6.20;1.15;;;;;;;;;;5023361;28;20132;-70
2023/01/13 15:57:56;;;;;;;3.65;0.98;;;;;;;;;;5022132;28;20633;-70
2023/01/13 16:00:23;;;;;;;5.90;1.75;;;;;;;;;;5025962;28;20048;-70
2023/01/13 16:02:50;;;;;;;3.80;1.40;;;;;;;;;;5020489;28;20067;-70
2023/01/13 16:05:17;;;;;;;4.20;1.30;;;;;;;;;;5026980;28;20703;-70
2023/01/13 16:07:44;;;;;;;3.60;1.40;;;;;;;;;;5007605;28;20041;-70
2023/01/13 16:10:18;;;;;;;4.22;1.40;;;;;;;;;;5009707;28;20135;-71